Maersk Flanders — PCFK — position and weather

sailwx.info

Track history (hours):
 
Tides and Currents Weather Stations Pressure Air Temp Water Temp Dewpoint Dewpoint Depression Visibility Wind Speed Wind Dir Waves Ship Positions

Maersk Flanders

Last reported at 2018-Jan-19 05:22 UTC. Time now 2018-Jan-19 08:01 UTC.
Position N 51°34' E 003°25'.

Length 111 m; draft 6.2 m.

Type: Ship. MMSI: 244889000.

Date/timePositionNaut miles runAvg speedWind from/ knotsBaromVisibWave heightAir tempDewpointWater temp
2018-Jan-19 05:22N 51°34' E 003°25'514.1
2018-Jan-19 05:00N 51°30' E 003°29'610.9
2018-Jan-19 04:29N 51°26' E 003°37'510.8
2018-Jan-19 04:00N 51°23' E 003°43'612.4
2018-Jan-19 03:30N 51°21' E 003°53'611.2
2018-Jan-19 03:00N 51°26' E 003°58'4 7.5
2018-Jan-19 02:30N 51°23' E 004°03'5 9.6
2018-Jan-19 02:00N 51°23' E 004°10'4 8.7
2018-Jan-19 01:30N 51°21' E 004°16'1 1.7
2018-Jan-19 01:00N 51°21' E 004°17'0 0.0
2018-Jan-19 00:31N 51°21' E 004°17'0 0.7
2018-Jan-19 00:00N 51°21' E 004°18'1 2.9
2018-Jan-18 23:30N 51°19' E 004°19'2 3.1
2018-Jan-18 22:55N 51°18' E 004°20'0 0.0
2018-Jan-18 22:21N 51°18' E 004°20'0 0.0
2018-Jan-18 21:59N 51°18' E 004°20'0 0.0
2018-Jan-18 21:25N 51°18' E 004°20'0 0.0
2018-Jan-18 20:58N 51°18' E 004°20'0 0.0
2018-Jan-18 19:33N 51°18' E 004°20'0 0.0
2018-Jan-18 19:23N 51°18' E 004°20'0 0.0
2018-Jan-18 18:59N 51°18' E 004°20'0 0.0
2018-Jan-18 18:29N 51°18' E 004°20'0 0.0
2018-Jan-18 17:56N 51°18' E 004°20'0 0.0
2018-Jan-18 16:47N 51°18' E 004°20'0 0.0
2018-Jan-18 16:18N 51°18' E 004°20'0 0.0
2018-Jan-18 15:54N 51°18' E 004°20'0 0.0
2018-Jan-18 15:30N 51°18' E 004°20'0 0.0
2018-Jan-18 15:00N 51°18' E 004°20'0 0.0
2018-Jan-18 09:01N 51°18' E 004°20'0 0.0
2018-Jan-18 08:59N 51°18' E 004°20'0 0.0
2018-Jan-18 05:09N 51°18' E 004°20'0 0.0
2018-Jan-18 05:00N 51°18' E 004°20'0 0.0
2018-Jan-18 04:30N 51°18' E 004°20'0 0.0
2018-Jan-18 04:00N 51°18' E 004°20'0 0.0
2018-Jan-18 03:26N 51°18' E 004°20'0 0.0
2018-Jan-18 02:59N 51°18' E 004°20'0 0.0
2018-Jan-18 02:28N 51°18' E 004°20'0 0.0
2018-Jan-18 02:00N 51°18' E 004°20'0 0.0
2018-Jan-18 01:28N 51°18' E 004°20'0 0.0
2018-Jan-18 01:00N 51°18' E 004°20'  
2018-Jan-12 02:30N 39°19' W 009°57'612.4
2018-Jan-12 02:00N 39°13' W 009°57'612.4
2018-Jan-12 01:30N 39°07' W 009°57'612.3
2018-Jan-12 01:00N 39°00' W 009°57'612.3
2018-Jan-12 00:30N 38°54' W 009°57'612.4
2018-Jan-12 00:00N 38°48' W 009°57'612.3
2018-Jan-11 23:30N 38°42' W 009°57'612.1
2018-Jan-11 23:00N 38°36' W 009°55'612.1
2018-Jan-11 22:30N 38°30' W 009°53'611.8
2018-Jan-11 22:00N 38°25' W 009°51'611.7
2018-Jan-11 21:28N 38°19' W 009°49'911.8
2018-Jan-11 20:43N 38°10' W 009°47'411.6
2018-Jan-11 20:21N 38°06' W 009°45'511.5
2018-Jan-11 19:55N 38°01' W 009°44'911.6
2018-Jan-11 19:11N 37°53' W 009°42'211.8
2018-Jan-11 19:00N 37°50' W 009°41'611.2
2018-Jan-11 18:30N 37°45' W 009°39'611.3
2018-Jan-11 18:00N 37°40' W 009°38'80 9.8
2018-Jan-11 09:48N 36°38' W 008°33'511.8
2018-Jan-11 09:24N 36°39' W 008°27'512.3
2018-Jan-11 08:59N 36°41' W 008°21'612.3
2018-Jan-11 08:30N 36°43' W 008°14'612.6
2018-Jan-11 08:00N 36°45' W 008°06'712.4
2018-Jan-11 07:26N 36°48' W 007°58'  
Track history (hours):
 
Tides and Currents Weather Stations Pressure Air Temp Water Temp Dewpoint Dewpoint Depression Visibility Wind Speed Wind Dir Waves Ship Positions

Maersk Flanders

Last reported at 2018-Jan-19 05:22 UTC. Time now 2018-Jan-19 08:01 UTC.
Position N 51°34' E 003°25'.

Length 111 m; draft 6.2 m.

Type: Ship. MMSI: 244889000.

Date/timePositionNaut miles runAvg speedWind from/ knotsBaromVisibWave heightAir tempDewpointWater temp
2018-Jan-19 05:22N 51°34' E 003°25'514.1
2018-Jan-19 05:00N 51°30' E 003°29'610.9
2018-Jan-19 04:29N 51°26' E 003°37'510.8
2018-Jan-19 04:00N 51°23' E 003°43'612.4
2018-Jan-19 03:30N 51°21' E 003°53'611.2
2018-Jan-19 03:00N 51°26' E 003°58'4 7.5
2018-Jan-19 02:30N 51°23' E 004°03'5 9.6
2018-Jan-19 02:00N 51°23' E 004°10'4 8.7
2018-Jan-19 01:30N 51°21' E 004°16'1 1.7
2018-Jan-19 01:00N 51°21' E 004°17'0 0.0
2018-Jan-19 00:31N 51°21' E 004°17'0 0.7
2018-Jan-19 00:00N 51°21' E 004°18'1 2.9
2018-Jan-18 23:30N 51°19' E 004°19'2 3.1
2018-Jan-18 22:55N 51°18' E 004°20'0 0.0
2018-Jan-18 22:21N 51°18' E 004°20'0 0.0
2018-Jan-18 21:59N 51°18' E 004°20'0 0.0
2018-Jan-18 21:25N 51°18' E 004°20'0 0.0
2018-Jan-18 20:58N 51°18' E 004°20'0 0.0
2018-Jan-18 19:33N 51°18' E 004°20'0 0.0
2018-Jan-18 19:23N 51°18' E 004°20'0 0.0
2018-Jan-18 18:59N 51°18' E 004°20'0 0.0
2018-Jan-18 18:29N 51°18' E 004°20'0 0.0
2018-Jan-18 17:56N 51°18' E 004°20'0 0.0
2018-Jan-18 16:47N 51°18' E 004°20'0 0.0
2018-Jan-18 16:18N 51°18' E 004°20'0 0.0
2018-Jan-18 15:54N 51°18' E 004°20'0 0.0
2018-Jan-18 15:30N 51°18' E 004°20'0 0.0
2018-Jan-18 15:00N 51°18' E 004°20'0 0.0
2018-Jan-18 09:01N 51°18' E 004°20'0 0.0
2018-Jan-18 08:59N 51°18' E 004°20'0 0.0
2018-Jan-18 05:09N 51°18' E 004°20'0 0.0
2018-Jan-18 05:00N 51°18' E 004°20'0 0.0
2018-Jan-18 04:30N 51°18' E 004°20'0 0.0
2018-Jan-18 04:00N 51°18' E 004°20'0 0.0
2018-Jan-18 03:26N 51°18' E 004°20'0 0.0
2018-Jan-18 02:59N 51°18' E 004°20'0 0.0
2018-Jan-18 02:28N 51°18' E 004°20'0 0.0
2018-Jan-18 02:00N 51°18' E 004°20'0 0.0
2018-Jan-18 01:28N 51°18' E 004°20'0 0.0
2018-Jan-18 01:00N 51°18' E 004°20'  
2018-Jan-12 02:30N 39°19' W 009°57'612.4
2018-Jan-12 02:00N 39°13' W 009°57'612.4
2018-Jan-12 01:30N 39°07' W 009°57'612.3
2018-Jan-12 01:00N 39°00' W 009°57'612.3
2018-Jan-12 00:30N 38°54' W 009°57'612.4
2018-Jan-12 00:00N 38°48' W 009°57'612.3
2018-Jan-11 23:30N 38°42' W 009°57'612.1
2018-Jan-11 23:00N 38°36' W 009°55'612.1
2018-Jan-11 22:30N 38°30' W 009°53'611.8
2018-Jan-11 22:00N 38°25' W 009°51'611.7
2018-Jan-11 21:28N 38°19' W 009°49'911.8
2018-Jan-11 20:43N 38°10' W 009°47'411.6
2018-Jan-11 20:21N 38°06' W 009°45'511.5
2018-Jan-11 19:55N 38°01' W 009°44'911.6
2018-Jan-11 19:11N 37°53' W 009°42'211.8
2018-Jan-11 19:00N 37°50' W 009°41'611.2
2018-Jan-11 18:30N 37°45' W 009°39'611.3
2018-Jan-11 18:00N 37°40' W 009°38'80 9.8
2018-Jan-11 09:48N 36°38' W 008°33'511.8
2018-Jan-11 09:24N 36°39' W 008°27'512.3
2018-Jan-11 08:59N 36°41' W 008°21'612.3
2018-Jan-11 08:30N 36°43' W 008°14'612.6
2018-Jan-11 08:00N 36°45' W 008°06'712.4
2018-Jan-11 07:26N 36°48' W 007°58'  

Dump ship's entire track history